| time (UTC) | temp F | wind direction | speed MPH | gust MPH | rain 1hr in | rain 24hr in | rain mn in | humidity % | barometer mb |
| 20260509173054 | 47 | 0.0 | 0.0 | 0.00 | 0.00 | 0.00 | 68 | 1023.9 | |
| 20260509173005 | 47 | 36 | 4.0 | 10.0 | 0.00 | 0.20 | 0.20 | 68 | 1024.2 |
| 20260509171615 | 47 | 292 | 1.0 | 8.0 | 0.00 | 0.20 | 0.20 | 69 | 1024.1 |
| 20260509171547 | 48 | 0.0 | 0.0 | 0.00 | 0.00 | 0.00 | 68 | 1024.0 | |
| 20260509170117 | 48 | 67 | 5.0 | 11.0 | 0.00 | 0.20 | 0.20 | 67 | 1024.1 |
| 20260509170059 | 48 | 0.0 | 0.0 | 0.00 | 0.00 | 0.00 | 66 | 1023.9 | |
| 20260509164553 | 47 | 0.0 | 0.0 | 0.00 | 0.00 | 0.00 | 66 | 1023.9 | |
| 20260509164514 | 47 | 82 | 2.0 | 12.0 | 0.00 | 0.20 | 0.20 | 67 | 1024.0 |
| 20260509163109 | 48 | 0.0 | 0.0 | 0.00 | 0.00 | 0.00 | 69 | 1023.9 | |
| 20260509163012 | 48 | 88 | 2.0 | 10.0 | 0.00 | 0.20 | 0.20 | 69 | 1024.0 |
| 20260509161552 | 48 | 81 | 3.0 | 10.0 | 0.00 | 0.20 | 0.20 | 68 | 1023.9 |
| 20260509160127 | 49 | 335 | 4.0 | 10.0 | 0.00 | 0.20 | 0.20 | 68 | 1023.8 |
| 20260509154603 | 48 | 49 | 4.0 | 9.0 | 0.00 | 0.20 | 0.20 | 70 | 1023.9 |
| 20260509153121 | 49 | 70 | 3.0 | 13.0 | 0.00 | 0.20 | 0.20 | 69 | 1023.6 |
| 20260509151502 | 50 | 126 | 2.0 | 10.0 | 0.00 | 0.20 | 0.20 | 69 | 1023.7 |
| 20260509150007 | 49 | 63 | 3.0 | 9.0 | 0.00 | 0.20 | 0.20 | 69 | 1023.8 |
| 20260509144610 | 49 | 105 | 3.0 | 10.0 | 0.00 | 0.20 | 0.20 | 68 | 1023.9 |
| 20260509143106 | 49 | 58 | 2.0 | 7.0 | 0.00 | 0.20 | 0.20 | 67 | 1023.9 |
| 20260509141603 | 50 | 90 | 2.0 | 10.0 | 0.00 | 0.20 | 0.20 | 70 | 1023.8 |
| 20260509140129 | 50 | 54 | 6.0 | 11.0 | 0.00 | 0.20 | 0.20 | 70 | 1023.9 |
| 20260509134502 | 49 | 72 | 5.0 | 13.0 | 0.00 | 0.20 | 0.20 | 70 | 1023.8 |
| 20260509133001 | 48 | 332 | 3.0 | 9.0 | 0.00 | 0.20 | 0.20 | 74 | 1024.0 |
| 20260509131522 | 48 | 29 | 2.0 | 13.0 | 0.00 | 0.20 | 0.20 | 75 | 1024.0 |
| 20260509124600 | 46 | 322 | 1.0 | 8.0 | 0.00 | 0.20 | 0.20 | 80 | 1024.3 |
| 20260509123107 | 45 | 55 | 2.0 | 7.0 | 0.00 | 0.20 | 0.20 | 81 | 1024.3 |
| 20260509121559 | 46 | 51 | 4.0 | 11.0 | 0.00 | 0.20 | 0.20 | 81 | 1024.2 |
| 20260509120115 | 45 | 85 | 4.0 | 11.0 | 0.00 | 0.20 | 0.20 | 83 | 1024.3 |
| 20260509114607 | 45 | 84 | 5.0 | 11.0 | 0.00 | 0.20 | 0.20 | 84 | 1024.3 |
| 20260509113119 | 44 | 61 | 3.0 | 8.0 | 0.00 | 0.20 | 0.20 | 87 | 1024.3 |
| 20260509111508 | 43 | 65 | 2.0 | 12.0 | 0.00 | 0.20 | 0.20 | 88 | 1024.4 |
| 20260509110043 | 43 | 103 | 5.0 | 13.0 | 0.00 | 0.20 | 0.20 | 89 | 1024.2 |
| 20260509104545 | 43 | 41 | 6.0 | 13.0 | 0.00 | 0.20 | 0.20 | 90 | 1024.1 |
| 20260509103104 | 43 | 70 | 5.0 | 13.0 | 0.00 | 0.20 | 0.20 | 91 | 1024.2 |
| 20260509101602 | 43 | 89 | 5.0 | 14.0 | 0.00 | 0.20 | 0.20 | 92 | 1024.2 |
| 20260509100129 | 43 | 70 | 4.0 | 12.0 | 0.00 | 0.20 | 0.20 | 92 | 1024.1 |
| 20260509094523 | 43 | 65 | 4.0 | 10.0 | 0.00 | 0.20 | 0.20 | 93 | 1024.1 |
| 20260509093051 | 43 | 49 | 2.0 | 8.0 | 0.01 | 0.20 | 0.20 | 93 | 1024.0 |
| 20260509091548 | 43 | 67 | 3.0 | 7.0 | 0.01 | 0.20 | 0.20 | 93 | 1023.9 |
| 20260509090109 | 42 | 102 | 3.0 | 9.0 | 0.01 | 0.20 | 0.20 | 93 | 1023.9 |
| 20260509084603 | 42 | 76 | 2.0 | 8.0 | 0.02 | 0.20 | 0.20 | 93 | 1023.9 |
| 20260509083115 | 42 | 69 | 3.0 | 7.0 | 0.03 | 0.19 | 0.19 | 93 | 1023.8 |
| 20260509081523 | 42 | 77 | 1.0 | 11.0 | 0.06 | 0.19 | 0.19 | 93 | 1023.7 |
| 20260509080134 | 42 | 59 | 3.0 | 12.0 | 0.08 | 0.19 | 0.19 | 93 | 1023.6 |
| 20260509074538 | 42 | 57 | 3.0 | 7.0 | 0.11 | 0.17 | 0.17 | 93 | 1023.5 |
| 20260509073104 | 42 | 68 | 4.0 | 11.0 | 0.13 | 0.16 | 0.16 | 93 | 1023.4 |
| 20260509071600 | 42 | 21 | 3.0 | 10.0 | 0.12 | 0.13 | 0.13 | 92 | 1023.4 |
| 20260509070114 | 42 | 50 | 4.0 | 15.0 | 0.10 | 0.10 | 0.10 | 92 | 1023.2 |
| 20260509064608 | 43 | 31 | 5.0 | 9.0 | 0.06 | 0.06 | 0.06 | 91 | 1023.1 |
| 20260509063132 | 43 | 57 | 4.0 | 13.0 | 0.03 | 0.03 | 0.03 | 90 | 1023.0 |
| 20260509061544 | 44 | 73 | 1.0 | 8.0 | 0.01 | 0.01 | 0.02 | 89 | 1023.0 |
| 20260509060107 | 44 | 24 | 3.0 | 13.0 | 0.00 | 0.00 | 0.00 | 88 | 1022.7 |
| 20260509054603 | 44 | 69 | 3.0 | 11.0 | 0.00 | 0.00 | 0.00 | 87 | 1022.6 |
| 20260509053112 | 44 | 46 | 4.0 | 10.0 | 0.00 | 0.00 | 0.00 | 87 | 1022.5 |
| 20260509051559 | 44 | 74 | 4.0 | 11.0 | 0.00 | 0.00 | 0.00 | 87 | 1022.4 |
| 20260509050118 | 44 | 54 | 2.0 | 10.0 | 0.00 | 0.00 | 0.00 | 87 | 1022.2 |
| 20260509044514 | 44 | 350 | 4.0 | 15.0 | 0.00 | 0.00 | 0.00 | 86 | 1022.1 |
| 20260509043009 | 44 | 87 | 2.0 | 12.0 | 0.00 | 0.00 | 0.00 | 87 | 1022.0 |
| 20260509041539 | 44 | 55 | 3.0 | 12.0 | 0.00 | 0.00 | 0.00 | 85 | 1022.0 |
| 20260509040058 | 44 | 45 | 4.0 | 12.0 | 0.00 | 0.00 | 0.00 | 84 | 1021.9 |
| 20260509034601 | 45 | 75 | 4.0 | 10.0 | 0.00 | 0.00 | 0.00 | 83 | 1021.9 |
| 20260509033120 | 45 | 64 | 2.0 | 12.0 | 0.00 | 0.00 | 0.00 | 82 | 1021.8 |
| 20260509031505 | 45 | 44 | 5.0 | 12.0 | 0.00 | 0.00 | 0.00 | 82 | 1021.8 |
| 20260509030055 | 45 | 68 | 3.0 | 10.0 | 0.00 | 0.00 | 0.00 | 83 | 1021.8 |
| 20260509024553 | 45 | 51 | 2.0 | 12.0 | 0.00 | 0.00 | 0.00 | 83 | 1021.7 |
| 20260509023123 | 45 | 63 | 2.0 | 9.0 | 0.00 | 0.00 | 0.00 | 83 | 1021.7 |
| 20260509021524 | 45 | 49 | 2.0 | 6.0 | 0.00 | 0.00 | 0.00 | 82 | 1021.8 |
| 20260509020013 | 45 | 69 | 5.0 | 11.0 | 0.00 | 0.00 | 0.00 | 82 | 1021.7 |
| 20260509014547 | 45 | 65 | 3.0 | 10.0 | 0.00 | 0.00 | 0.00 | 83 | 1021.6 |
| 20260509013121 | 45 | 65 | 6.0 | 12.0 | 0.00 | 0.00 | 0.00 | 83 | 1021.5 |
| 20260509011601 | 46 | 51 | 1.0 | 6.0 | 0.00 | 0.00 | 0.00 | 83 | 1021.5 |
| 20260509010119 | 46 | 63 | 4.0 | 9.0 | 0.00 | 0.00 | 0.00 | 82 | 1021.5 |
| 20260509004533 | 46 | 57 | 5.0 | 16.0 | 0.00 | 0.00 | 0.00 | 82 | 1021.5 |
| 20260509003002 | 46 | 79 | 3.0 | 12.0 | 0.00 | 0.00 | 0.00 | 82 | 1021.4 |
| 20260509001531 | 47 | 84 | 3.0 | 11.0 | 0.00 | 0.00 | 0.00 | 80 | 1021.2 |
| 20260509000101 | 48 | 82 | 4.0 | 11.0 | 0.00 | 0.00 | 0.00 | 77 | 1021.1 |
| 20260508234558 | 47 | 11 | 1.0 | 9.0 | 0.00 | 0.00 | 0.00 | 74 | 1021.1 |
| 20260508233116 | 47 | 306 | 4.0 | 9.0 | 0.00 | 0.00 | 0.00 | 72 | 1021.0 |
| 20260508231519 | 47 | 281 | 1.0 | 6.0 | 0.00 | 0.00 | 0.00 | 72 | 1020.6 |
| 20260508230055 | 47 | 252 | 2.0 | 6.0 | 0.00 | 0.00 | 0.00 | 71 | 1020.4 |
| 20260508224557 | 47 | 272 | 2.0 | 8.0 | 0.00 | 0.00 | 0.00 | 71 | 1020.3 |
| 20260508223056 | 47 | 250 | 2.0 | 6.0 | 0.00 | 0.00 | 0.00 | 71 | 1020.3 |
| 20260508221556 | 47 | 261 | 2.0 | 5.0 | 0.00 | 0.00 | 0.00 | 71 | 1020.2 |
| 20260508220119 | 47 | 280 | 2.0 | 7.0 | 0.00 | 0.00 | 0.00 | 70 | 1020.0 |
| 20260508214522 | 48 | 275 | 2.0 | 6.0 | 0.00 | 0.00 | 0.00 | 69 | 1019.8 |
| 20260508213106 | 48 | 242 | 2.0 | 6.0 | 0.00 | 0.00 | 0.00 | 69 | 1019.6 |
| 20260508211551 | 48 | 263 | 1.0 | 7.0 | 0.00 | 0.00 | 0.00 | 69 | 1019.6 |
| 20260508210112 | 48 | 265 | 1.0 | 4.0 | 0.00 | 0.00 | 0.00 | 68 | 1019.5 |
| 20260508204519 | 49 | 269 | 2.0 | 4.0 | 0.00 | 0.00 | 0.00 | 68 | 1019.4 |
| 20260508203132 | 49 | 265 | 2.0 | 4.0 | 0.00 | 0.00 | 0.00 | 68 | 1019.2 |
| 20260508201534 | 49 | 257 | 1.0 | 3.0 | 0.00 | 0.00 | 0.00 | 68 | 1019.1 |
| 20260508200056 | 49 | 244 | 1.0 | 3.0 | 0.00 | 0.00 | 0.00 | 68 | 1019.0 |
| 20260508194546 | 51 | 250 | 0.0 | 2.0 | 0.00 | 0.00 | 0.00 | 67 | 1018.8 |
| 20260508193136 | 52 | 250 | 0.0 | 2.0 | 0.00 | 0.00 | 0.00 | 66 | 1018.7 |
| 20260508191600 | 53 | 250 | 0.0 | 4.0 | 0.00 | 0.00 | 0.00 | 65 | 1018.6 |
| 20260508190119 | 53 | 240 | 0.0 | 2.0 | 0.00 | 0.00 | 0.00 | 64 | 1018.5 |
| 20260508184528 | 54 | 244 | 1.0 | 3.0 | 0.00 | 0.00 | 0.00 | 63 | 1018.2 |
| 20260508183012 | 54 | 243 | 1.0 | 4.0 | 0.00 | 0.00 | 0.00 | 62 | 1018.1 |
| 20260508181540 | 55 | 236 | 2.0 | 6.0 | 0.00 | 0.00 | 0.00 | 60 | 1017.9 |
| 20260508180106 | 56 | 239 | 2.0 | 7.0 | 0.00 | 0.00 | 0.00 | 59 | 1017.8 |
| 20260508174611 | 56 | 267 | 2.0 | 7.0 | 0.00 | 0.00 | 0.00 | 58 | 1017.7 |